PWSweather.com
Personal Weather Stations
Station Observations
MAKAWAOWX1
Up Country Maui, Makawao, HI 96768

Up Country MauiMakawao, HI 96768

Lat: 20.856944, Lon: -156.3149667

Elevation: 1500

Station Type: Davis Vantage Pro

www.dwayneyamato@hawaiiantel.net

High Low Average
Temperature 81.9°F27.7°F 68.0°F20.0°F 73.8°F23.2°F
Dew Point 68.1°F20.1°F 63.0°F17.2°F 65.8°F18.8°F
Winds 15.6 mph NE25.1 mph NE 2.0 mph 3.2 mph 8.7 mph 14.0 mph
Wind Gusts 27.0 mph43.5 mph 5.0 mph8.0 mph 14.1 mph22.7 mph
Humidity 92% 58% 77%
Pressure 29.99 in1015.60 in 29.91 in1012.90 in -
Precipitation 0.01 in0.30 in - -
Hour Temp Dew Point Humidity Winds Wind Gusts Pressure Precip Precip Rate Daily Precip Total
12:00 AM 70.6°F21.4°C 66.5°F19.2°C 87% 5.6 mph ENE9.0 kmh ENE 10.0 mph16.1 kmh 29.96 in1014.6 mb 0.00 in0.0 mm 0.00 in/hr0.0 mm/hr 0.00 in0.0 mm
12:10 AM 70.1°F21.2°C 66.0°F18.9°C 87% 8.2 mph NE13.2 kmh NE 13.0 mph20.9 kmh 29.96 in1014.6 mb 0.00 in0.0 mm 0.00 in/hr0.0 mm/hr 0.00 in0.0 mm
12:20 AM 70.0°F21.1°C 66.0°F18.9°C 87% 8.3 mph E13.4 kmh E 11.0 mph17.7 kmh 29.95 in1014.2 mb 0.00 in0.0 mm 0.00 in/hr0.0 mm/hr 0.00 in0.0 mm
12:30 AM 70.4°F21.3°C 66.3°F19.1°C 87% 2.0 mph E3.2 kmh E 8.0 mph12.9 kmh 29.95 in1014.2 mb 0.00 in0.0 mm 0.00 in/hr0.0 mm/hr 0.00 in0.0 mm
12:40 AM 70.3°F21.3°C 66.3°F19.1°C 87% 6.2 mph E10.0 kmh E 11.0 mph17.7 kmh 29.95 in1014.2 mb 0.00 in0.0 mm 0.00 in/hr0.0 mm/hr 0.00 in0.0 mm
12:50 AM 70.4°F21.3°C 66.0°F18.9°C 86% 4.1 mph E6.6 kmh E 7.0 mph11.3 kmh 29.95 in1014.2 mb 0.00 in0.0 mm 0.00 in/hr0.0 mm/hr 0.00 in0.0 mm
01:00 AM 70.8°F21.6°C 66.1°F18.9°C 85% 2.4 mph E3.9 kmh E 9.0 mph14.5 kmh 29.94 in1013.9 mb 0.00 in0.0 mm 0.00 in/hr0.0 mm/hr 0.00 in0.0 mm
01:10 AM 71.0°F21.7°C 66.3°F19.1°C 85% 8.4 mph NE13.5 kmh NE 15.0 mph24.1 kmh 29.94 in1013.9 mb 0.00 in0.0 mm 0.00 in/hr0.0 mm/hr 0.00 in0.0 mm
01:20 AM 70.6°F21.4°C 66.2°F19.0°C 86% 8.9 mph E14.3 kmh E 9.0 mph14.5 kmh 29.93 in1013.5 mb 0.00 in0.0 mm 0.00 in/hr0.0 mm/hr 0.00 in0.0 mm
01:30 AM 70.1°F21.2°C 66.0°F18.9°C 87% 5.5 mph E8.9 kmh E 9.0 mph14.5 kmh 29.93 in1013.5 mb 0.00 in0.0 mm 0.00 in/hr0.0 mm/hr 0.00 in0.0 mm
01:40 AM 70.0°F21.1°C 66.0°F18.9°C 87% 2.8 mph E4.5 kmh E 7.0 mph11.3 kmh 29.93 in1013.5 mb 0.00 in0.0 mm 0.00 in/hr0.0 mm/hr 0.00 in0.0 mm
01:50 AM 70.1°F21.2°C 66.0°F18.9°C 87% 2.5 mph ENE4.0 kmh ENE 7.0 mph11.3 kmh 29.93 in1013.5 mb 0.00 in0.0 mm 0.00 in/hr0.0 mm/hr 0.00 in0.0 mm
02:00 AM 70.5°F21.4°C 66.4°F19.1°C 87% 2.1 mph NE3.4 kmh NE 7.0 mph11.3 kmh 29.92 in1013.2 mb 0.00 in0.0 mm 0.00 in/hr0.0 mm/hr 0.00 in0.0 mm
02:10 AM 70.1°F21.2°C 66.4°F19.1°C 88% 9.1 mph E14.6 kmh E 10.0 mph16.1 kmh 29.92 in1013.2 mb 0.00 in0.0 mm 0.00 in/hr0.0 mm/hr 0.00 in0.0 mm
02:20 AM 69.8°F21.0°C 66.1°F18.9°C 88% 7.7 mph E12.4 kmh E 12.0 mph19.3 kmh 29.92 in1013.2 mb 0.00 in0.0 mm 0.00 in/hr0.0 mm/hr 0.00 in0.0 mm
02:30 AM 69.9°F21.1°C 66.2°F19.0°C 88% 3.6 mph E5.8 kmh E 10.0 mph16.1 kmh 29.92 in1013.2 mb 0.00 in0.0 mm 0.00 in/hr0.0 mm/hr 0.00 in0.0 mm
02:40 AM 69.7°F20.9°C 66.6°F19.2°C 90% 8.2 mph ENE13.2 kmh ENE 11.0 mph17.7 kmh 29.92 in1013.2 mb 0.00 in0.0 mm 0.00 in/hr0.0 mm/hr 0.00 in0.0 mm
02:50 AM 69.6°F20.9°C 66.9°F19.4°C 91% 6.5 mph ENE10.5 kmh ENE 9.0 mph14.5 kmh 29.92 in1013.2 mb 0.00 in0.0 mm 0.00 in/hr0.0 mm/hr 0.00 in0.0 mm
03:00 AM 69.5°F20.8°C 66.8°F19.3°C 91% 3.1 mph E5.0 kmh E 8.0 mph12.9 kmh 29.91 in1012.9 mb 0.00 in0.0 mm 0.00 in/hr0.0 mm/hr 0.00 in0.0 mm
03:10 AM 69.3°F20.7°C 66.9°F19.4°C 92% 5.4 mph ENE8.7 kmh ENE 11.0 mph17.7 kmh 29.91 in1012.9 mb 0.00 in0.0 mm 0.00 in/hr0.0 mm/hr 0.00 in0.0 mm
03:20 AM 69.1°F20.6°C 66.7°F19.3°C 92% 6.2 mph E10.0 kmh E 9.0 mph14.5 kmh 29.91 in1012.9 mb 0.00 in0.0 mm 0.00 in/hr0.0 mm/hr 0.00 in0.0 mm
03:30 AM 68.9°F20.5°C 66.5°F19.2°C 92% 4.9 mph ENE7.9 kmh ENE 7.0 mph11.3 kmh 29.91 in1012.9 mb 0.00 in0.0 mm 0.00 in/hr0.0 mm/hr 0.00 in0.0 mm
03:40 AM 68.7°F20.4°C 66.3°F19.1°C 92% 7.8 mph E12.6 kmh E 10.0 mph16.1 kmh 29.91 in1012.9 mb 0.00 in0.0 mm 0.00 in/hr0.0 mm/hr 0.00 in0.0 mm
03:50 AM 68.7°F20.4°C 66.3°F19.1°C 92% 3.9 mph ENE6.3 kmh ENE 5.0 mph8.0 kmh 29.92 in1013.2 mb 0.00 in0.0 mm 0.00 in/hr0.0 mm/hr 0.00 in0.0 mm
04:00 AM 68.7°F20.4°C 66.0°F18.9°C 91% 5.7 mph ESE9.2 kmh ESE 9.0 mph14.5 kmh 29.92 in1013.2 mb 0.00 in0.0 mm 0.00 in/hr0.0 mm/hr 0.00 in0.0 mm
04:10 AM 68.6°F20.3°C 65.9°F18.8°C 91% 4.4 mph ENE7.1 kmh ENE 10.0 mph16.1 kmh 29.92 in1013.2 mb 0.00 in0.0 mm 0.00 in/hr0.0 mm/hr 0.00 in0.0 mm
04:20 AM 68.5°F20.3°C 65.8°F18.8°C 91% 4.5 mph E7.2 kmh E 8.0 mph12.9 kmh 29.92 in1013.2 mb 0.00 in0.0 mm 0.00 in/hr0.0 mm/hr 0.00 in0.0 mm
04:30 AM 68.2°F20.1°C 65.5°F18.6°C 91% 8.4 mph E13.5 kmh E 12.0 mph19.3 kmh 29.92 in1013.2 mb 0.00 in0.0 mm 0.00 in/hr0.0 mm/hr 0.00 in0.0 mm
04:40 AM 68.0°F20.0°C 65.6°F18.7°C 92% 7.8 mph E12.6 kmh E 11.0 mph17.7 kmh 29.92 in1013.2 mb 0.00 in0.0 mm 0.00 in/hr0.0 mm/hr 0.00 in0.0 mm
04:50 AM 68.1°F20.1°C 65.7°F18.7°C 92% 6.8 mph E10.9 kmh E 9.0 mph14.5 kmh 29.92 in1013.2 mb 0.00 in0.0 mm 0.00 in/hr0.0 mm/hr 0.00 in0.0 mm
05:00 AM 68.3°F20.2°C 65.2°F18.4°C 90% 5.0 mph ESE8.0 kmh ESE 11.0 mph17.7 kmh 29.92 in1013.2 mb 0.00 in0.0 mm 0.00 in/hr0.0 mm/hr 0.00 in0.0 mm
05:10 AM 68.5°F20.3°C 65.1°F18.4°C 89% 5.1 mph E8.2 kmh E 9.0 mph14.5 kmh 29.92 in1013.2 mb 0.00 in0.0 mm 0.00 in/hr0.0 mm/hr 0.00 in0.0 mm
05:20 AM 68.3°F20.2°C 64.3°F17.9°C 87% 9.0 mph E14.5 kmh E 12.0 mph19.3 kmh 29.92 in1013.2 mb 0.00 in0.0 mm 0.00 in/hr0.0 mm/hr 0.00 in0.0 mm
05:30 AM 68.6°F20.3°C 64.6°F18.1°C 87% 7.2 mph E11.6 kmh E 12.0 mph19.3 kmh 29.92 in1013.2 mb 0.00 in0.0 mm 0.00 in/hr0.0 mm/hr 0.00 in0.0 mm
05:40 AM 68.7°F20.4°C 64.3°F17.9°C 86% 10.3 mph E16.6 kmh E 16.0 mph25.7 kmh 29.92 in1013.2 mb 0.00 in0.0 mm 0.00 in/hr0.0 mm/hr 0.00 in0.0 mm
05:50 AM 68.8°F20.4°C 64.4°F18.0°C 86% 9.1 mph ENE14.6 kmh ENE 15.0 mph24.1 kmh 29.93 in1013.5 mb 0.00 in0.0 mm 0.00 in/hr0.0 mm/hr 0.00 in0.0 mm
06:00 AM 68.7°F20.4°C 64.3°F17.9°C 86% 11.2 mph ENE18.0 kmh ENE 16.0 mph25.7 kmh 29.93 in1013.5 mb 0.00 in0.0 mm 0.00 in/hr0.0 mm/hr 0.00 in0.0 mm
06:10 AM 68.8°F20.4°C 64.1°F17.8°C 85% 11.2 mph E18.0 kmh E 17.0 mph27.4 kmh 29.94 in1013.9 mb 0.00 in0.0 mm 0.00 in/hr0.0 mm/hr 0.00 in0.0 mm
06:20 AM 68.9°F20.5°C 63.9°F17.7°C 84% 4.4 mph E7.1 kmh E 8.0 mph12.9 kmh 29.94 in1013.9 mb 0.00 in0.0 mm 0.00 in/hr0.0 mm/hr 0.00 in0.0 mm
06:30 AM 68.6°F20.3°C 64.2°F17.9°C 86% 8.6 mph E13.8 kmh E 11.0 mph17.7 kmh 29.94 in1013.9 mb 0.00 in0.0 mm 0.00 in/hr0.0 mm/hr 0.00 in0.0 mm
06:40 AM 68.8°F20.4°C 63.8°F17.7°C 84% 8.8 mph E14.2 kmh E 13.0 mph20.9 kmh 29.95 in1014.2 mb 0.00 in0.0 mm 0.00 in/hr0.0 mm/hr 0.00 in0.0 mm
06:50 AM 68.8°F20.4°C 64.1°F17.8°C 85% 8.1 mph E13.0 kmh E 12.0 mph19.3 kmh 29.95 in1014.2 mb 0.00 in0.0 mm 0.00 in/hr0.0 mm/hr 0.00 in0.0 mm
07:00 AM 69.1°F20.6°C 64.4°F18.0°C 85% 7.6 mph ENE12.2 kmh ENE 14.0 mph22.5 kmh 29.95 in1014.2 mb 0.00 in0.0 mm 0.00 in/hr0.0 mm/hr 0.00 in0.0 mm
07:10 AM 69.6°F20.9°C 63.8°F17.7°C 82% 8.9 mph ENE14.3 kmh ENE 14.0 mph22.5 kmh 29.95 in1014.2 mb 0.00 in0.0 mm 0.00 in/hr0.0 mm/hr 0.00 in0.0 mm
07:20 AM 70.1°F21.2°C 63.6°F17.6°C 80% 4.6 mph ENE7.4 kmh ENE 9.0 mph14.5 kmh 29.96 in1014.6 mb 0.00 in0.0 mm 0.00 in/hr0.0 mm/hr 0.00 in0.0 mm
07:30 AM 70.6°F21.4°C 63.0°F17.2°C 77% 9.7 mph E15.6 kmh E 17.0 mph27.4 kmh 29.96 in1014.6 mb 0.00 in0.0 mm 0.00 in/hr0.0 mm/hr 0.00 in0.0 mm
07:40 AM 71.1°F21.7°C 63.1°F17.3°C 76% 10.5 mph E16.9 kmh E 13.0 mph20.9 kmh 29.96 in1014.6 mb 0.00 in0.0 mm 0.00 in/hr0.0 mm/hr 0.00 in0.0 mm
07:50 AM 71.7°F22.1°C 63.0°F17.2°C 74% 11.5 mph E18.5 kmh E 17.0 mph27.4 kmh 29.96 in1014.6 mb 0.00 in0.0 mm 0.00 in/hr0.0 mm/hr 0.00 in0.0 mm
08:00 AM 72.4°F22.4°C 63.2°F17.3°C 73% 10.1 mph E16.3 kmh E 18.0 mph29.0 kmh 29.96 in1014.6 mb 0.00 in0.0 mm 0.00 in/hr0.0 mm/hr 0.00 in0.0 mm
08:10 AM 73.3°F22.9°C 63.8°F17.7°C 72% 8.5 mph E13.7 kmh E 18.0 mph29.0 kmh 29.95 in1014.2 mb 0.00 in0.0 mm 0.00 in/hr0.0 mm/hr 0.00 in0.0 mm
08:20 AM 74.1°F23.4°C 64.1°F17.8°C 71% 5.9 mph NE9.5 kmh NE 12.0 mph19.3 kmh 29.96 in1014.6 mb 0.00 in0.0 mm 0.00 in/hr0.0 mm/hr 0.00 in0.0 mm
08:30 AM 74.9°F23.8°C 63.6°F17.6°C 68% 11.5 mph E18.5 kmh E 19.0 mph30.6 kmh 29.96 in1014.6 mb 0.00 in0.0 mm 0.00 in/hr0.0 mm/hr 0.00 in0.0 mm
08:40 AM 75.4°F24.1°C 63.7°F17.6°C 67% 12.7 mph E20.4 kmh E 17.0 mph27.4 kmh 29.96 in1014.6 mb 0.00 in0.0 mm 0.00 in/hr0.0 mm/hr 0.00 in0.0 mm
08:50 AM 76.2°F24.6°C 64.4°F18.0°C 67% 11.0 mph E17.7 kmh E 24.0 mph38.6 kmh 29.96 in1014.6 mb 0.00 in0.0 mm 0.00 in/hr0.0 mm/hr 0.00 in0.0 mm
09:00 AM 76.9°F24.9°C 64.2°F17.9°C 65% 5.3 mph E8.5 kmh E 9.0 mph14.5 kmh 29.96 in1014.6 mb 0.00 in0.0 mm 0.00 in/hr0.0 mm/hr 0.00 in0.0 mm
09:10 AM 77.4°F25.2°C 65.1°F18.4°C 66% 7.8 mph E12.6 kmh E 11.0 mph17.7 kmh 29.96 in1014.6 mb 0.00 in0.0 mm 0.00 in/hr0.0 mm/hr 0.00 in0.0 mm
09:20 AM 77.5°F25.3°C 64.8°F18.2°C 65% 10.1 mph E16.3 kmh E 17.0 mph27.4 kmh 29.96 in1014.6 mb 0.00 in0.0 mm 0.00 in/hr0.0 mm/hr 0.00 in0.0 mm
09:30 AM 78.1°F25.6°C 66.2°F19.0°C 67% 12.6 mph ENE20.3 kmh ENE 18.0 mph29.0 kmh 29.96 in1014.6 mb 0.00 in0.0 mm 0.00 in/hr0.0 mm/hr 0.00 in0.0 mm
09:40 AM 77.7°F25.4°C 67.5°F19.7°C 71% 11.3 mph ENE18.2 kmh ENE 11.0 mph17.7 kmh 29.96 in1014.6 mb 0.00 in0.0 mm 0.00 in/hr0.0 mm/hr 0.00 in0.0 mm
09:50 AM 77.4°F25.2°C 67.7°F19.8°C 72% 10.6 mph ENE17.1 kmh ENE 21.0 mph33.8 kmh 29.96 in1014.6 mb 0.00 in0.0 mm 0.00 in/hr0.0 mm/hr 0.00 in0.0 mm
10:00 AM 78.0°F25.6°C 66.6°F19.2°C 68% 11.9 mph E19.2 kmh E 16.0 mph25.7 kmh 29.96 in1014.6 mb 0.00 in0.0 mm 0.00 in/hr0.0 mm/hr 0.00 in0.0 mm
10:10 AM 78.6°F25.9°C 67.1°F19.5°C 68% 9.2 mph ENE14.8 kmh ENE 21.0 mph33.8 kmh 29.96 in1014.6 mb 0.00 in0.0 mm 0.00 in/hr0.0 mm/hr 0.00 in0.0 mm
10:20 AM 78.9°F26.1°C 65.7°F18.7°C 64% 7.7 mph E12.4 kmh E 10.0 mph16.1 kmh 29.97 in1014.9 mb 0.00 in0.0 mm 0.00 in/hr0.0 mm/hr 0.00 in0.0 mm
10:30 AM 79.5°F26.4°C 67.2°F19.6°C 66% 9.0 mph NE14.5 kmh NE 17.0 mph27.4 kmh 29.97 in1014.9 mb 0.00 in0.0 mm 0.00 in/hr0.0 mm/hr 0.00 in0.0 mm
10:40 AM 79.6°F26.4°C 67.7°F19.8°C 67% 10.7 mph ENE17.2 kmh ENE 27.0 mph43.5 kmh 29.97 in1014.9 mb 0.00 in0.0 mm 0.00 in/hr0.0 mm/hr 0.00 in0.0 mm
10:50 AM 79.3°F26.3°C 67.4°F19.7°C 67% 15.6 mph NE25.1 kmh NE 25.0 mph40.2 kmh 29.97 in1014.9 mb 0.00 in0.0 mm 0.00 in/hr0.0 mm/hr 0.00 in0.0 mm
11:00 AM 79.2°F26.2°C 67.7°F19.8°C 68% 11.1 mph E17.9 kmh E 19.0 mph30.6 kmh 29.98 in1015.2 mb 0.00 in0.0 mm 0.00 in/hr0.0 mm/hr 0.00 in0.0 mm
11:10 AM 79.0°F26.1°C 66.7°F19.3°C 66% 8.8 mph ESE14.2 kmh ESE 7.0 mph11.3 kmh 29.97 in1014.9 mb 0.00 in0.0 mm 0.00 in/hr0.0 mm/hr 0.00 in0.0 mm
11:20 AM 79.5°F26.4°C 66.3°F19.1°C 64% 10.4 mph NE16.7 kmh NE 14.0 mph22.5 kmh 29.97 in1014.9 mb 0.00 in0.0 mm 0.00 in/hr0.0 mm/hr 0.00 in0.0 mm
11:30 AM 79.7°F26.5°C 67.4°F19.7°C 66% 9.7 mph E15.6 kmh E 17.0 mph27.4 kmh 29.96 in1014.6 mb 0.00 in0.0 mm 0.00 in/hr0.0 mm/hr 0.00 in0.0 mm
11:40 AM 80.3°F26.8°C 66.5°F19.2°C 63% 10.6 mph E17.1 kmh E 12.0 mph19.3 kmh 29.96 in1014.6 mb 0.00 in0.0 mm 0.00 in/hr0.0 mm/hr 0.00 in0.0 mm
11:50 AM 81.1°F27.3°C 67.7°F19.8°C 64% 10.8 mph ENE17.4 kmh ENE 13.0 mph20.9 kmh 29.96 in1014.6 mb 0.00 in0.0 mm 0.00 in/hr0.0 mm/hr 0.00 in0.0 mm
12:00 PM 80.4°F26.9°C 64.8°F18.2°C 59% 12.9 mph ENE20.8 kmh ENE 24.0 mph38.6 kmh 29.96 in1014.6 mb 0.00 in0.0 mm 0.00 in/hr0.0 mm/hr 0.00 in0.0 mm
12:10 PM 80.4°F26.9°C 64.8°F18.2°C 59% 14.0 mph E22.5 kmh E 18.0 mph29.0 kmh 29.95 in1014.2 mb 0.00 in0.0 mm 0.00 in/hr0.0 mm/hr 0.00 in0.0 mm
12:20 PM 80.5°F26.9°C 64.4°F18.0°C 58% 12.2 mph E19.6 kmh E 16.0 mph25.7 kmh 29.95 in1014.2 mb 0.00 in0.0 mm 0.00 in/hr0.0 mm/hr 0.00 in0.0 mm
12:30 PM 80.4°F26.9°C 64.8°F18.2°C 59% 11.5 mph E18.5 kmh E 19.0 mph30.6 kmh 29.95 in1014.2 mb 0.00 in0.0 mm 0.00 in/hr0.0 mm/hr 0.00 in0.0 mm
12:40 PM 80.9°F27.2°C 65.2°F18.4°C 59% 8.6 mph E13.8 kmh E 18.0 mph29.0 kmh 29.95 in1014.2 mb 0.00 in0.0 mm 0.00 in/hr0.0 mm/hr 0.00 in0.0 mm
12:50 PM 81.1°F27.3°C 66.4°F19.1°C 61% 11.7 mph E18.8 kmh E 14.0 mph22.5 kmh 29.95 in1014.2 mb 0.00 in0.0 mm 0.00 in/hr0.0 mm/hr 0.00 in0.0 mm
01:00 PM 81.5°F27.5°C 68.1°F20.1°C 64% 14.4 mph ENE23.2 kmh ENE 22.0 mph35.4 kmh 29.95 in1014.2 mb 0.00 in0.0 mm 0.00 in/hr0.0 mm/hr 0.00 in0.0 mm
01:10 PM 81.1°F27.3°C 67.3°F19.6°C 63% 8.3 mph E13.4 kmh E 17.0 mph27.4 kmh 29.95 in1014.2 mb 0.00 in0.0 mm 0.00 in/hr0.0 mm/hr 0.00 in0.0 mm
01:20 PM 80.8°F27.1°C 67.5°F19.7°C 64% 11.8 mph E19.0 kmh E 22.0 mph35.4 kmh 29.94 in1013.9 mb 0.00 in0.0 mm 0.00 in/hr0.0 mm/hr 0.00 in0.0 mm
01:30 PM 80.8°F27.1°C 67.5°F19.7°C 64% 14.7 mph E23.7 kmh E 21.0 mph33.8 kmh 29.94 in1013.9 mb 0.00 in0.0 mm 0.00 in/hr0.0 mm/hr 0.00 in0.0 mm
01:40 PM 80.7°F27.1°C 66.9°F19.4°C 63% 9.7 mph E15.6 kmh E 15.0 mph24.1 kmh 29.94 in1013.9 mb 0.00 in0.0 mm 0.00 in/hr0.0 mm/hr 0.00 in0.0 mm
01:50 PM 81.0°F27.2°C 66.7°F19.3°C 62% 10.7 mph ENE17.2 kmh ENE 19.0 mph30.6 kmh 29.93 in1013.5 mb 0.00 in0.0 mm 0.00 in/hr0.0 mm/hr 0.00 in0.0 mm
02:00 PM 80.9°F27.2°C 66.7°F19.3°C 62% 11.9 mph E19.2 kmh E 19.0 mph30.6 kmh 29.93 in1013.5 mb 0.00 in0.0 mm 0.00 in/hr0.0 mm/hr 0.00 in0.0 mm
02:10 PM 80.9°F27.2°C 65.7°F18.7°C 60% 11.7 mph E18.8 kmh E 20.0 mph32.2 kmh 29.93 in1013.5 mb 0.00 in0.0 mm 0.00 in/hr0.0 mm/hr 0.00 in0.0 mm
02:20 PM 81.5°F27.5°C 66.8°F19.3°C 61% 9.8 mph NE15.8 kmh NE 11.0 mph17.7 kmh 29.93 in1013.5 mb 0.00 in0.0 mm 0.00 in/hr0.0 mm/hr 0.00 in0.0 mm
02:30 PM 81.5°F27.5°C 66.3°F19.1°C 60% 9.9 mph E15.9 kmh E 16.0 mph25.7 kmh 29.93 in1013.5 mb 0.00 in0.0 mm 0.00 in/hr0.0 mm/hr 0.00 in0.0 mm
02:40 PM 81.9°F27.7°C 67.1°F19.5°C 61% 8.9 mph ENE14.3 kmh ENE 13.0 mph20.9 kmh 29.93 in1013.5 mb 0.00 in0.0 mm 0.00 in/hr0.0 mm/hr 0.00 in0.0 mm
02:50 PM 81.6°F27.6°C 67.8°F19.9°C 63% 12.5 mph E20.1 kmh E 16.0 mph25.7 kmh 29.93 in1013.5 mb 0.00 in0.0 mm 0.00 in/hr0.0 mm/hr 0.00 in0.0 mm
03:00 PM 81.8°F27.7°C 68.0°F20.0°C 63% 8.1 mph E13.0 kmh E 12.0 mph19.3 kmh 29.93 in1013.5 mb 0.00 in0.0 mm 0.00 in/hr0.0 mm/hr 0.00 in0.0 mm
03:10 PM 81.8°F27.7°C 66.6°F19.2°C 60% 14.2 mph ENE22.9 kmh ENE 18.0 mph29.0 kmh 29.92 in1013.2 mb 0.00 in0.0 mm 0.00 in/hr0.0 mm/hr 0.00 in0.0 mm
03:20 PM 81.6°F27.6°C 67.3°F19.6°C 62% 10.7 mph E17.2 kmh E 20.0 mph32.2 kmh 29.92 in1013.2 mb 0.00 in0.0 mm 0.00 in/hr0.0 mm/hr 0.00 in0.0 mm
03:30 PM 81.0°F27.2°C 66.3°F19.1°C 61% 10.6 mph ENE17.1 kmh ENE 15.0 mph24.1 kmh 29.92 in1013.2 mb 0.00 in0.0 mm 0.00 in/hr0.0 mm/hr 0.00 in0.0 mm
03:40 PM 81.1°F27.3°C 66.9°F19.4°C 62% 12.2 mph E19.6 kmh E 18.0 mph29.0 kmh 29.92 in1013.2 mb 0.00 in0.0 mm 0.00 in/hr0.0 mm/hr 0.00 in0.0 mm
03:50 PM 81.0°F27.2°C 65.8°F18.8°C 60% 11.4 mph ENE18.3 kmh ENE 12.0 mph19.3 kmh 29.91 in1012.9 mb 0.00 in0.0 mm 0.00 in/hr0.0 mm/hr 0.00 in0.0 mm
04:00 PM 81.2°F27.3°C 67.4°F19.7°C 63% 10.9 mph E17.5 kmh E 15.0 mph24.1 kmh 29.91 in1012.9 mb 0.00 in0.0 mm 0.00 in/hr0.0 mm/hr 0.00 in0.0 mm
04:10 PM 80.8°F27.1°C 67.9°F19.9°C 65% 8.3 mph E13.4 kmh E 14.0 mph22.5 kmh 29.91 in1012.9 mb 0.00 in0.0 mm 0.00 in/hr0.0 mm/hr 0.00 in0.0 mm
04:20 PM 80.4°F26.9°C 67.1°F19.5°C 64% 10.0 mph NE16.1 kmh NE 12.0 mph19.3 kmh 29.91 in1012.9 mb 0.00 in0.0 mm 0.00 in/hr0.0 mm/hr 0.00 in0.0 mm
04:30 PM 79.8°F26.6°C 66.1°F18.9°C 63% 4.7 mph NE7.6 kmh NE 19.0 mph30.6 kmh 29.91 in1012.9 mb 0.00 in0.0 mm 0.00 in/hr0.0 mm/hr 0.00 in0.0 mm
04:40 PM 79.6°F26.4°C 66.8°F19.3°C 65% 11.6 mph E18.7 kmh E 17.0 mph27.4 kmh 29.91 in1012.9 mb 0.00 in0.0 mm 0.00 in/hr0.0 mm/hr 0.00 in0.0 mm
04:50 PM 78.9°F26.1°C 66.5°F19.2°C 66% 7.8 mph ENE12.6 kmh ENE 18.0 mph29.0 kmh 29.91 in1012.9 mb 0.00 in0.0 mm 0.00 in/hr0.0 mm/hr 0.00 in0.0 mm
05:00 PM 78.7°F25.9°C 66.8°F19.3°C 67% 13.9 mph ENE22.4 kmh ENE 20.0 mph32.2 kmh 29.91 in1012.9 mb 0.00 in0.0 mm 0.00 in/hr0.0 mm/hr 0.00 in0.0 mm
05:10 PM 78.0°F25.6°C 67.4°F19.7°C 70% 13.3 mph E21.4 kmh E 14.0 mph22.5 kmh 29.91 in1012.9 mb 0.00 in0.0 mm 0.00 in/hr0.0 mm/hr 0.00 in0.0 mm
05:20 PM 77.5°F25.3°C 67.4°F19.7°C 71% 10.7 mph NE17.2 kmh NE 16.0 mph25.7 kmh 29.91 in1012.9 mb 0.00 in0.0 mm 0.00 in/hr0.0 mm/hr 0.00 in0.0 mm
05:30 PM 76.7°F24.8°C 67.0°F19.4°C 72% 9.5 mph E15.3 kmh E 13.0 mph20.9 kmh 29.91 in1012.9 mb 0.00 in0.0 mm 0.00 in/hr0.0 mm/hr 0.00 in0.0 mm
05:40 PM 76.4°F24.7°C 67.5°F19.7°C 74% 9.1 mph E14.6 kmh E 10.0 mph16.1 kmh 29.92 in1013.2 mb 0.00 in0.0 mm 0.00 in/hr0.0 mm/hr 0.00 in0.0 mm
05:50 PM 75.9°F24.4°C 66.6°F19.2°C 73% 13.1 mph ENE21.1 kmh ENE 18.0 mph29.0 kmh 29.92 in1013.2 mb 0.00 in0.0 mm 0.00 in/hr0.0 mm/hr 0.00 in0.0 mm
06:00 PM 75.2°F24.0°C 65.9°F18.8°C 73% 12.0 mph E19.3 kmh E 14.0 mph22.5 kmh 29.93 in1013.5 mb 0.00 in0.0 mm 0.00 in/hr0.0 mm/hr 0.00 in0.0 mm
06:10 PM 74.8°F23.8°C 66.0°F18.9°C 74% 9.6 mph E15.4 kmh E 16.0 mph25.7 kmh 29.93 in1013.5 mb 0.00 in0.0 mm 0.00 in/hr0.0 mm/hr 0.00 in0.0 mm
06:20 PM 74.1°F23.4°C 65.6°F18.7°C 75% 8.6 mph ENE13.8 kmh ENE 20.0 mph32.2 kmh 29.93 in1013.5 mb 0.00 in0.0 mm 0.00 in/hr0.0 mm/hr 0.00 in0.0 mm
06:30 PM 73.6°F23.1°C 65.6°F18.7°C 76% 10.2 mph E16.4 kmh E 20.0 mph32.2 kmh 29.93 in1013.5 mb 0.00 in0.0 mm 0.00 in/hr0.0 mm/hr 0.00 in0.0 mm
06:40 PM 73.1°F22.8°C 65.5°F18.6°C 77% 8.2 mph E13.2 kmh E 15.0 mph24.1 kmh 29.94 in1013.9 mb 0.00 in0.0 mm 0.00 in/hr0.0 mm/hr 0.00 in0.0 mm
06:50 PM 72.7°F22.6°C 65.1°F18.4°C 77% 6.9 mph NE11.1 kmh NE 12.0 mph19.3 kmh 29.95 in1014.2 mb 0.00 in0.0 mm 0.00 in/hr0.0 mm/hr 0.00 in0.0 mm
07:00 PM 72.4°F22.4°C 65.5°F18.6°C 79% 4.9 mph ENE7.9 kmh ENE 12.0 mph19.3 kmh 29.95 in1014.2 mb 0.00 in0.0 mm 0.00 in/hr0.0 mm/hr 0.00 in0.0 mm
07:10 PM 71.9°F22.2°C 65.7°F18.7°C 81% 6.0 mph ENE9.7 kmh ENE 8.0 mph12.9 kmh 29.95 in1014.2 mb 0.00 in0.0 mm 0.00 in/hr0.0 mm/hr 0.00 in0.0 mm
07:20 PM 71.3°F21.8°C 66.2°F19.0°C 84% 9.2 mph E14.8 kmh E 17.0 mph27.4 kmh 29.96 in1014.6 mb 0.00 in0.0 mm 0.00 in/hr0.0 mm/hr 0.00 in0.0 mm
07:30 PM 70.7°F21.5°C 66.0°F18.9°C 85% 7.9 mph ENE12.7 kmh ENE 14.0 mph22.5 kmh 29.96 in1014.6 mb 0.00 in0.0 mm 0.00 in/hr0.0 mm/hr 0.00 in0.0 mm
07:40 PM 70.3°F21.3°C 65.2°F18.4°C 84% 13.4 mph E21.6 kmh E 21.0 mph33.8 kmh 29.97 in1014.9 mb 0.00 in0.0 mm 0.00 in/hr0.0 mm/hr 0.00 in0.0 mm
07:50 PM 70.2°F21.2°C 64.8°F18.2°C 83% 6.6 mph E10.6 kmh E 12.0 mph19.3 kmh 29.97 in1014.9 mb 0.00 in0.0 mm 0.00 in/hr0.0 mm/hr 0.00 in0.0 mm
08:00 PM 70.2°F21.2°C 64.8°F18.2°C 83% 9.3 mph ENE15.0 kmh ENE 16.0 mph25.7 kmh 29.97 in1014.9 mb 0.00 in0.0 mm 0.00 in/hr0.0 mm/hr 0.00 in0.0 mm
08:10 PM 70.1°F21.2°C 64.7°F18.2°C 83% 6.2 mph E10.0 kmh E 8.0 mph12.9 kmh 29.97 in1014.9 mb 0.00 in0.0 mm 0.00 in/hr0.0 mm/hr 0.00 in0.0 mm
08:20 PM 70.0°F21.1°C 64.6°F18.1°C 83% 7.8 mph E12.6 kmh E 19.0 mph30.6 kmh 29.97 in1014.9 mb 0.00 in0.0 mm 0.00 in/hr0.0 mm/hr 0.00 in0.0 mm
08:30 PM 70.1°F21.2°C 65.0°F18.3°C 84% 6.1 mph E9.8 kmh E 9.0 mph14.5 kmh 29.98 in1015.2 mb 0.00 in0.0 mm 0.00 in/hr0.0 mm/hr 0.00 in0.0 mm
08:40 PM 70.0°F21.1°C 64.9°F18.3°C 84% 10.0 mph ENE16.1 kmh ENE 20.0 mph32.2 kmh 29.98 in1015.2 mb 0.00 in0.0 mm 0.00 in/hr0.0 mm/hr 0.00 in0.0 mm
08:50 PM 70.1°F21.2°C 65.4°F18.6°C 85% 6.1 mph ENE9.8 kmh ENE 13.0 mph20.9 kmh 29.98 in1015.2 mb 0.00 in0.0 mm 0.00 in/hr0.0 mm/hr 0.00 in0.0 mm
09:00 PM 69.9°F21.1°C 65.2°F18.4°C 85% 9.7 mph ENE15.6 kmh ENE 14.0 mph22.5 kmh 29.98 in1015.2 mb 0.00 in0.0 mm 0.00 in/hr0.0 mm/hr 0.00 in0.0 mm
09:10 PM 69.7°F20.9°C 65.0°F18.3°C 85% 8.1 mph E13.0 kmh E 11.0 mph17.7 kmh 29.98 in1015.2 mb 0.00 in0.0 mm 0.00 in/hr0.0 mm/hr 0.00 in0.0 mm
09:20 PM 69.6°F20.9°C 64.5°F18.1°C 84% 12.6 mph E20.3 kmh E 22.0 mph35.4 kmh 29.98 in1015.2 mb 0.00 in0.0 mm 0.00 in/hr0.0 mm/hr 0.00 in0.0 mm
09:30 PM 69.7°F20.9°C 64.6°F18.1°C 84% 7.3 mph E11.7 kmh E 13.0 mph20.9 kmh 29.98 in1015.2 mb 0.00 in0.0 mm 0.00 in/hr0.0 mm/hr 0.00 in0.0 mm
09:40 PM 69.7°F20.9°C 65.0°F18.3°C 85% 10.0 mph E16.1 kmh E 15.0 mph24.1 kmh 29.98 in1015.2 mb 0.00 in0.0 mm 0.00 in/hr0.0 mm/hr 0.00 in0.0 mm
09:50 PM 69.9°F21.1°C 64.8°F18.2°C 84% 7.0 mph E11.3 kmh E 16.0 mph25.7 kmh 29.98 in1015.2 mb 0.00 in0.0 mm 0.00 in/hr0.0 mm/hr 0.00 in0.0 mm
10:00 PM 70.0°F21.1°C 64.6°F18.1°C 83% 5.1 mph ENE8.2 kmh ENE 8.0 mph12.9 kmh 29.98 in1015.2 mb 0.00 in0.0 mm 0.00 in/hr0.0 mm/hr 0.00 in0.0 mm
10:10 PM 70.0°F21.1°C 64.2°F17.9°C 82% 7.1 mph E11.4 kmh E 16.0 mph25.7 kmh 29.98 in1015.2 mb 0.00 in0.0 mm 0.00 in/hr0.0 mm/hr 0.00 in0.0 mm
10:20 PM 70.3°F21.3°C 64.5°F18.1°C 82% 9.8 mph E15.8 kmh E 16.0 mph25.7 kmh 29.99 in1015.6 mb 0.00 in0.0 mm 0.00 in/hr0.0 mm/hr 0.00 in0.0 mm
10:30 PM 70.5°F21.4°C 64.7°F18.2°C 82% 7.4 mph E11.9 kmh E 21.0 mph33.8 kmh 29.99 in1015.6 mb 0.00 in0.0 mm 0.00 in/hr0.0 mm/hr 0.00 in0.0 mm
10:40 PM 70.4°F21.3°C 65.0°F18.3°C 83% 7.3 mph E11.7 kmh E 13.0 mph20.9 kmh 29.99 in1015.6 mb 0.00 in0.0 mm 0.00 in/hr0.0 mm/hr 0.00 in0.0 mm
10:50 PM 69.8°F21.0°C 65.4°F18.6°C 86% 9.5 mph ENE15.3 kmh ENE 12.0 mph19.3 kmh 29.99 in1015.6 mb 0.00 in0.0 mm 0.00 in/hr0.0 mm/hr 0.00 in0.0 mm
11:00 PM 69.3°F20.7°C 65.6°F18.7°C 88% 7.3 mph NE11.7 kmh NE 13.0 mph20.9 kmh 29.99 in1015.6 mb 0.00 in0.0 mm 0.00 in/hr0.0 mm/hr 0.00 in0.0 mm
11:10 PM 68.9°F20.5°C 64.9°F18.3°C 87% 8.4 mph ENE13.5 kmh ENE 17.0 mph27.4 kmh 29.99 in1015.6 mb 0.00 in0.0 mm 0.00 in/hr0.0 mm/hr 0.00 in0.0 mm
11:20 PM 69.0°F20.6°C 65.3°F18.5°C 88% 8.3 mph ENE13.4 kmh ENE 12.0 mph19.3 kmh 29.98 in1015.2 mb 0.00 in0.0 mm 0.00 in/hr0.0 mm/hr 0.00 in0.0 mm
11:30 PM 69.0°F20.6°C 65.3°F18.5°C 88% 11.1 mph E17.9 kmh E 20.0 mph32.2 kmh 29.99 in1015.6 mb 0.01 in0.3 mm 0.06 in/hr1.5 mm/hr 0.01 in0.3 mm
11:40 PM 69.1°F20.6°C 65.4°F18.6°C 88% 6.5 mph ENE10.5 kmh ENE 7.0 mph11.3 kmh 29.99 in1015.6 mb 0.00 in0.0 mm 0.00 in/hr0.0 mm/hr 0.01 in0.3 mm
11:50 PM 69.1°F20.6°C 65.7°F18.7°C 89% 7.7 mph NE12.4 kmh NE 10.0 mph16.1 kmh 29.99 in1015.6 mb 0.00 in0.0 mm 0.00 in/hr0.0 mm/hr 0.01 in0.3 mm